sensor_id;sensor_type;location;lat;lon;timestamp;P1;durP1;ratioP1;P2;durP2;ratioP2
51034;SDS011;37062;52.546;13.230;2022-10-31T00:00:15;488.90;;;287.00;;
51034;SDS011;37062;52.546;13.230;2022-10-31T00:02:43;481.25;;;288.17;;
51034;SDS011;37062;52.546;13.230;2022-10-31T00:05:10;278.25;;;157.32;;
51034;SDS011;37062;52.546;13.230;2022-10-31T00:07:37;198.43;;;106.80;;
51034;SDS011;37062;52.546;13.230;2022-10-31T00:10:05;90.57;;;49.35;;
51034;SDS011;37062;52.546;13.230;2022-10-31T00:12:34;380.50;;;208.05;;
51034;SDS011;37062;52.546;13.230;2022-10-31T00:15:01;52.95;;;31.15;;
51034;SDS011;37062;52.546;13.230;2022-10-31T00:17:30;31.40;;;20.17;;
51034;SDS011;37062;52.546;13.230;2022-10-31T00:20:00;26.17;;;17.73;;
51034;SDS011;37062;52.546;13.230;2022-10-31T00:22:28;30.23;;;19.52;;
51034;SDS011;37062;52.546;13.230;2022-10-31T00:24:55;29.30;;;19.20;;
51034;SDS011;37062;52.546;13.230;2022-10-31T00:27:23;27.45;;;19.70;;
51034;SDS011;37062;52.546;13.230;2022-10-31T00:29:52;29.95;;;18.80;;
51034;SDS011;37062;52.546;13.230;2022-10-31T00:32:20;25.15;;;17.08;;
51034;SDS011;37062;52.546;13.230;2022-10-31T00:34:49;27.88;;;18.52;;
51034;SDS011;37062;52.546;13.230;2022-10-31T00:37:17;25.95;;;17.05;;
51034;SDS011;37062;52.546;13.230;2022-10-31T00:39:44;22.50;;;15.38;;
51034;SDS011;37062;52.546;13.230;2022-10-31T00:42:14;24.58;;;16.02;;
51034;SDS011;37062;52.546;13.230;2022-10-31T00:44:44;28.83;;;17.50;;
51034;SDS011;37062;52.546;13.230;2022-10-31T00:47:14;23.58;;;16.25;;
51034;SDS011;37062;52.546;13.230;2022-10-31T00:49:41;31.00;;;15.77;;
51034;SDS011;37062;52.546;13.230;2022-10-31T00:52:10;26.88;;;17.35;;
51034;SDS011;37062;52.546;13.230;2022-10-31T00:54:38;28.27;;;17.60;;
51034;SDS011;37062;52.546;13.230;2022-10-31T00:57:05;22.70;;;15.68;;
51034;SDS011;37062;52.546;13.230;2022-10-31T00:59:33;22.05;;;14.68;;
51034;SDS011;37062;52.546;13.230;2022-10-31T01:02:00;21.77;;;14.77;;
51034;SDS011;37062;52.546;13.230;2022-10-31T01:04:27;29.63;;;16.10;;
51034;SDS011;37062;52.546;13.230;2022-10-31T01:06:56;18.02;;;14.02;;
51034;SDS011;37062;52.546;13.230;2022-10-31T01:09:25;22.25;;;13.73;;
51034;SDS011;37062;52.546;13.230;2022-10-31T01:11:52;23.65;;;15.32;;
51034;SDS011;37062;52.546;13.230;2022-10-31T01:14:22;23.58;;;14.35;;
51034;SDS011;37062;52.546;13.230;2022-10-31T01:16:49;19.17;;;14.02;;
51034;SDS011;37062;52.546;13.230;2022-10-31T01:19:17;22.83;;;13.85;;
51034;SDS011;37062;52.546;13.230;2022-10-31T01:21:46;22.83;;;12.23;;
51034;SDS011;37062;52.546;13.230;2022-10-31T01:24:13;21.58;;;12.80;;
51034;SDS011;37062;52.546;13.230;2022-10-31T01:26:42;19.70;;;12.80;;
51034;SDS011;37062;52.546;13.230;2022-10-31T01:29:09;16.25;;;12.55;;
51034;SDS011;37062;52.546;13.230;2022-10-31T01:31:37;20.50;;;12.90;;
51034;SDS011;37062;52.546;13.230;2022-10-31T01:34:06;20.15;;;12.88;;
51034;SDS011;37062;52.546;13.230;2022-10-31T01:36:35;17.45;;;11.18;;
51034;SDS011;37062;52.546;13.230;2022-10-31T01:39:05;19.95;;;12.30;;
51034;SDS011;37062;52.546;13.230;2022-10-31T01:41:36;20.17;;;12.65;;
51034;SDS011;37062;52.546;13.230;2022-10-31T01:47:11;20.67;;;15.13;;
51034;SDS011;37062;52.546;13.230;2022-10-31T01:49:43;23.38;;;13.18;;
51034;SDS011;37062;52.546;13.230;2022-10-31T01:52:16;17.00;;;11.55;;
51034;SDS011;37062;52.546;13.230;2022-10-31T01:54:48;25.35;;;14.13;;
51034;SDS011;37062;52.546;13.230;2022-10-31T01:57:18;18.67;;;12.40;;
51034;SDS011;37062;52.546;13.230;2022-10-31T01:59:51;21.05;;;13.43;;
51034;SDS011;37062;52.546;13.230;2022-10-31T02:02:25;18.85;;;12.20;;
51034;SDS011;37062;52.546;13.230;2022-10-31T02:04:54;18.15;;;12.25;;
51034;SDS011;37062;52.546;13.230;2022-10-31T02:07:24;20.75;;;14.63;;
51034;SDS011;37062;52.546;13.230;2022-10-31T02:09:57;22.80;;;14.30;;
51034;SDS011;37062;52.546;13.230;2022-10-31T02:12:27;24.58;;;14.07;;
51034;SDS011;37062;52.546;13.230;2022-10-31T02:14:59;20.80;;;13.13;;
51034;SDS011;37062;52.546;13.230;2022-10-31T02:17:28;16.50;;;12.68;;
51034;SDS011;37062;52.546;13.230;2022-10-31T02:20:00;20.35;;;12.52;;
51034;SDS011;37062;52.546;13.230;2022-10-31T02:22:38;20.15;;;13.02;;
51034;SDS011;37062;52.546;13.230;2022-10-31T02:25:15;17.27;;;12.57;;
51034;SDS011;37062;52.546;13.230;2022-10-31T02:28:01;17.15;;;11.65;;
51034;SDS011;37062;52.546;13.230;2022-10-31T02:30:51;21.42;;;12.48;;
51034;SDS011;37062;52.546;13.230;2022-10-31T02:33:25;20.52;;;14.32;;
51034;SDS011;37062;52.546;13.230;2022-10-31T02:36:02;21.85;;;13.50;;
51034;SDS011;37062;52.546;13.230;2022-10-31T02:38:41;22.35;;;14.77;;
51034;SDS011;37062;52.546;13.230;2022-10-31T02:41:24;21.23;;;12.93;;
51034;SDS011;37062;52.546;13.230;2022-10-31T02:44:08;24.48;;;15.05;;
51034;SDS011;37062;52.546;13.230;2022-10-31T02:46:44;24.98;;;13.15;;
51034;SDS011;37062;52.546;13.230;2022-10-31T02:49:18;21.95;;;13.95;;
51034;SDS011;37062;52.546;13.230;2022-10-31T02:51:51;19.75;;;12.68;;
51034;SDS011;37062;52.546;13.230;2022-10-31T02:54:19;23.17;;;13.48;;
51034;SDS011;37062;52.546;13.230;2022-10-31T02:56:53;20.02;;;13.02;;
51034;SDS011;37062;52.546;13.230;2022-10-31T02:59:25;19.30;;;12.25;;
51034;SDS011;37062;52.546;13.230;2022-10-31T03:02:08;20.63;;;13.32;;
51034;SDS011;37062;52.546;13.230;2022-10-31T03:07:57;23.33;;;15.05;;
51034;SDS011;37062;52.546;13.230;2022-10-31T03:10:31;17.75;;;12.27;;
51034;SDS011;37062;52.546;13.230;2022-10-31T03:13:08;19.60;;;12.20;;
51034;SDS011;37062;52.546;13.230;2022-10-31T03:15:39;23.85;;;12.48;;
51034;SDS011;37062;52.546;13.230;2022-10-31T03:18:11;14.93;;;12.25;;
51034;SDS011;37062;52.546;13.230;2022-10-31T03:20:45;19.10;;;12.48;;
51034;SDS011;37062;52.546;13.230;2022-10-31T03:23:17;23.25;;;13.18;;
51034;SDS011;37062;52.546;13.230;2022-10-31T03:25:49;18.30;;;11.93;;
51034;SDS011;37062;52.546;13.230;2022-10-31T03:28:26;20.15;;;13.48;;
51034;SDS011;37062;52.546;13.230;2022-10-31T03:30:57;18.23;;;11.20;;
51034;SDS011;37062;52.546;13.230;2022-10-31T03:33:28;20.63;;;12.43;;
51034;SDS011;37062;52.546;13.230;2022-10-31T03:36:02;16.88;;;11.90;;
51034;SDS011;37062;52.546;13.230;2022-10-31T03:38:34;22.80;;;13.63;;
51034;SDS011;37062;52.546;13.230;2022-10-31T03:41:03;16.75;;;10.98;;
51034;SDS011;37062;52.546;13.230;2022-10-31T03:43:36;15.20;;;10.20;;
51034;SDS011;37062;52.546;13.230;2022-10-31T03:46:07;22.05;;;13.13;;
51034;SDS011;37062;52.546;13.230;2022-10-31T03:48:37;17.48;;;11.52;;
51034;SDS011;37062;52.546;13.230;2022-10-31T03:51:06;17.63;;;10.80;;
51034;SDS011;37062;52.546;13.230;2022-10-31T03:53:40;21.30;;;12.23;;
51034;SDS011;37062;52.546;13.230;2022-10-31T03:56:17;17.90;;;13.02;;
51034;SDS011;37062;52.546;13.230;2022-10-31T03:58:52;18.40;;;12.45;;
51034;SDS011;37062;52.546;13.230;2022-10-31T04:01:26;15.48;;;11.02;;
51034;SDS011;37062;52.546;13.230;2022-10-31T04:03:57;17.92;;;11.20;;
51034;SDS011;37062;52.546;13.230;2022-10-31T04:06:25;22.17;;;12.02;;
51034;SDS011;37062;52.546;13.230;2022-10-31T04:08:56;25.63;;;13.68;;
51034;SDS011;37062;52.546;13.230;2022-10-31T04:11:30;23.50;;;12.88;;
51034;SDS011;37062;52.546;13.230;2022-10-31T04:14:33;18.27;;;11.05;;
51034;SDS011;37062;52.546;13.230;2022-10-31T04:17:04;16.02;;;11.05;;
51034;SDS011;37062;52.546;13.230;2022-10-31T04:19:40;16.27;;;11.90;;
51034;SDS011;37062;52.546;13.230;2022-10-31T04:22:07;17.88;;;12.55;;
51034;SDS011;37062;52.546;13.230;2022-10-31T04:24:35;19.77;;;13.13;;
51034;SDS011;37062;52.546;13.230;2022-10-31T04:27:04;21.77;;;13.93;;
51034;SDS011;37062;52.546;13.230;2022-10-31T04:29:32;20.92;;;12.82;;
51034;SDS011;37062;52.546;13.230;2022-10-31T04:31:59;14.48;;;10.68;;
51034;SDS011;37062;52.546;13.230;2022-10-31T04:34:26;18.20;;;11.05;;
51034;SDS011;37062;52.546;13.230;2022-10-31T04:36:55;17.67;;;11.20;;
51034;SDS011;37062;52.546;13.230;2022-10-31T04:39:22;15.25;;;10.20;;
51034;SDS011;37062;52.546;13.230;2022-10-31T04:42:10;16.02;;;10.90;;
51034;SDS011;37062;52.546;13.230;2022-10-31T04:44:37;15.35;;;10.23;;
51034;SDS011;37062;52.546;13.230;2022-10-31T04:47:04;20.85;;;12.88;;
51034;SDS011;37062;52.546;13.230;2022-10-31T04:49:32;20.33;;;12.27;;
51034;SDS011;37062;52.546;13.230;2022-10-31T04:52:01;20.23;;;14.32;;
51034;SDS011;37062;52.546;13.230;2022-10-31T04:54:28;20.15;;;14.18;;
51034;SDS011;37062;52.546;13.230;2022-10-31T04:57:39;17.38;;;12.25;;
51034;SDS011;37062;52.546;13.230;2022-10-31T05:00:07;19.73;;;12.82;;
51034;SDS011;37062;52.546;13.230;2022-10-31T05:02:42;16.75;;;12.00;;
51034;SDS011;37062;52.546;13.230;2022-10-31T05:05:10;15.57;;;10.13;;
51034;SDS011;37062;52.546;13.230;2022-10-31T05:07:40;19.55;;;13.18;;
51034;SDS011;37062;52.546;13.230;2022-10-31T05:10:09;16.45;;;11.95;;
51034;SDS011;37062;52.546;13.230;2022-10-31T05:12:38;22.02;;;14.30;;
51034;SDS011;37062;52.546;13.230;2022-10-31T05:15:30;19.63;;;11.80;;
51034;SDS011;37062;52.546;13.230;2022-10-31T05:18:16;17.05;;;11.13;;
51034;SDS011;37062;52.546;13.230;2022-10-31T05:21:02;16.60;;;10.00;;
51034;SDS011;37062;52.546;13.230;2022-10-31T05:23:57;15.95;;;10.18;;
51034;SDS011;37062;52.546;13.230;2022-10-31T05:26:24;15.95;;;11.38;;
51034;SDS011;37062;52.546;13.230;2022-10-31T05:28:53;23.15;;;14.60;;
51034;SDS011;37062;52.546;13.230;2022-10-31T05:31:21;17.70;;;11.35;;
51034;SDS011;37062;52.546;13.230;2022-10-31T05:33:49;18.15;;;13.45;;
51034;SDS011;37062;52.546;13.230;2022-10-31T05:36:43;23.20;;;13.63;;
51034;SDS011;37062;52.546;13.230;2022-10-31T05:39:15;16.38;;;11.95;;
51034;SDS011;37062;52.546;13.230;2022-10-31T05:41:47;18.20;;;11.98;;
51034;SDS011;37062;52.546;13.230;2022-10-31T05:44:25;18.10;;;12.93;;
51034;SDS011;37062;52.546;13.230;2022-10-31T05:47:12;22.23;;;14.55;;
51034;SDS011;37062;52.546;13.230;2022-10-31T05:49:55;22.10;;;12.20;;
51034;SDS011;37062;52.546;13.230;2022-10-31T05:52:41;17.17;;;11.55;;
51034;SDS011;37062;52.546;13.230;2022-10-31T05:55:26;18.33;;;11.10;;
51034;SDS011;37062;52.546;13.230;2022-10-31T05:58:08;16.52;;;11.15;;
51034;SDS011;37062;52.546;13.230;2022-10-31T06:00:37;17.67;;;10.43;;
51034;SDS011;37062;52.546;13.230;2022-10-31T06:03:08;19.33;;;12.75;;
51034;SDS011;37062;52.546;13.230;2022-10-31T06:05:47;25.10;;;14.55;;
51034;SDS011;37062;52.546;13.230;2022-10-31T06:08:14;16.50;;;10.77;;
51034;SDS011;37062;52.546;13.230;2022-10-31T06:10:45;16.70;;;11.95;;
51034;SDS011;37062;52.546;13.230;2022-10-31T06:13:14;27.60;;;15.73;;
51034;SDS011;37062;52.546;13.230;2022-10-31T06:15:45;17.25;;;11.75;;
51034;SDS011;37062;52.546;13.230;2022-10-31T06:18:12;23.05;;;12.90;;
51034;SDS011;37062;52.546;13.230;2022-10-31T06:20:48;21.40;;;11.45;;
51034;SDS011;37062;52.546;13.230;2022-10-31T06:23:16;17.88;;;11.13;;
51034;SDS011;37062;52.546;13.230;2022-10-31T06:25:49;17.25;;;11.02;;
51034;SDS011;37062;52.546;13.230;2022-10-31T06:28:17;19.58;;;13.02;;
51034;SDS011;37062;52.546;13.230;2022-10-31T06:30:54;18.55;;;13.60;;
51034;SDS011;37062;52.546;13.230;2022-10-31T06:33:22;25.27;;;14.95;;
51034;SDS011;37062;52.546;13.230;2022-10-31T06:35:59;18.00;;;12.18;;
51034;SDS011;37062;52.546;13.230;2022-10-31T06:38:27;24.52;;;12.85;;
51034;SDS011;37062;52.546;13.230;2022-10-31T06:40:57;19.42;;;12.00;;
51034;SDS011;37062;52.546;13.230;2022-10-31T06:43:34;17.67;;;11.13;;
51034;SDS011;37062;52.546;13.230;2022-10-31T06:46:27;17.90;;;11.23;;
51034;SDS011;37062;52.546;13.230;2022-10-31T06:49:06;16.15;;;10.60;;
51034;SDS011;37062;52.546;13.230;2022-10-31T06:51:40;18.48;;;12.10;;
51034;SDS011;37062;52.546;13.230;2022-10-31T06:54:08;16.52;;;10.90;;
51034;SDS011;37062;52.546;13.230;2022-10-31T06:56:37;16.90;;;10.20;;
51034;SDS011;37062;52.546;13.230;2022-10-31T06:59:04;31.30;;;19.88;;
51034;SDS011;37062;52.546;13.230;2022-10-31T07:01:55;17.52;;;11.60;;
51034;SDS011;37062;52.546;13.230;2022-10-31T07:04:23;20.90;;;12.05;;
51034;SDS011;37062;52.546;13.230;2022-10-31T07:06:51;14.88;;;8.90;;
51034;SDS011;37062;52.546;13.230;2022-10-31T07:09:19;18.98;;;11.07;;
51034;SDS011;37062;52.546;13.230;2022-10-31T07:11:48;16.42;;;10.65;;
51034;SDS011;37062;52.546;13.230;2022-10-31T07:14:18;24.67;;;12.27;;
51034;SDS011;37062;52.546;13.230;2022-10-31T07:16:48;17.23;;;11.00;;
51034;SDS011;37062;52.546;13.230;2022-10-31T07:19:21;20.17;;;11.55;;
51034;SDS011;37062;52.546;13.230;2022-10-31T07:21:49;15.25;;;11.18;;
51034;SDS011;37062;52.546;13.230;2022-10-31T07:24:16;21.83;;;12.25;;
51034;SDS011;37062;52.546;13.230;2022-10-31T07:27:11;15.73;;;10.35;;
51034;SDS011;37062;52.546;13.230;2022-10-31T07:29:38;12.45;;;8.95;;
51034;SDS011;37062;52.546;13.230;2022-10-31T07:32:07;18.50;;;11.15;;
51034;SDS011;37062;52.546;13.230;2022-10-31T07:34:39;15.32;;;10.80;;
51034;SDS011;37062;52.546;13.230;2022-10-31T07:37:18;15.93;;;11.52;;
51034;SDS011;37062;52.546;13.230;2022-10-31T07:39:45;16.90;;;11.65;;
51034;SDS011;37062;52.546;13.230;2022-10-31T07:42:14;23.35;;;12.65;;
51034;SDS011;37062;52.546;13.230;2022-10-31T07:44:44;14.75;;;10.75;;
51034;SDS011;37062;52.546;13.230;2022-10-31T07:47:37;16.00;;;10.68;;
51034;SDS011;37062;52.546;13.230;2022-10-31T07:50:05;20.02;;;12.43;;
51034;SDS011;37062;52.546;13.230;2022-10-31T07:52:58;19.92;;;12.25;;
51034;SDS011;37062;52.546;13.230;2022-10-31T07:55:45;22.33;;;12.05;;
51034;SDS011;37062;52.546;13.230;2022-10-31T07:58:15;18.27;;;12.63;;
51034;SDS011;37062;52.546;13.230;2022-10-31T08:00:44;19.90;;;11.98;;
51034;SDS011;37062;52.546;13.230;2022-10-31T08:03:16;19.38;;;12.32;;
51034;SDS011;37062;52.546;13.230;2022-10-31T08:06:08;19.83;;;12.20;;
51034;SDS011;37062;52.546;13.230;2022-10-31T08:08:58;22.40;;;12.45;;
51034;SDS011;37062;52.546;13.230;2022-10-31T08:11:25;22.25;;;13.30;;
51034;SDS011;37062;52.546;13.230;2022-10-31T08:13:54;26.15;;;13.02;;
51034;SDS011;37062;52.546;13.230;2022-10-31T08:16:23;18.75;;;11.48;;
51034;SDS011;37062;52.546;13.230;2022-10-31T08:18:56;26.88;;;14.75;;
51034;SDS011;37062;52.546;13.230;2022-10-31T08:21:23;22.02;;;13.73;;
51034;SDS011;37062;52.546;13.230;2022-10-31T08:23:50;25.27;;;14.95;;
51034;SDS011;37062;52.546;13.230;2022-10-31T08:26:21;23.92;;;13.27;;
51034;SDS011;37062;52.546;13.230;2022-10-31T08:28:50;23.15;;;13.65;;
51034;SDS011;37062;52.546;13.230;2022-10-31T08:31:22;20.38;;;13.27;;
51034;SDS011;37062;52.546;13.230;2022-10-31T08:34:15;20.23;;;12.77;;
51034;SDS011;37062;52.546;13.230;2022-10-31T08:37:01;25.88;;;15.35;;
51034;SDS011;37062;52.546;13.230;2022-10-31T08:39:36;24.67;;;14.68;;
51034;SDS011;37062;52.546;13.230;2022-10-31T08:42:03;25.27;;;16.00;;
51034;SDS011;37062;52.546;13.230;2022-10-31T08:44:31;25.30;;;13.50;;
51034;SDS011;37062;52.546;13.230;2022-10-31T08:47:00;22.58;;;15.32;;
51034;SDS011;37062;52.546;13.230;2022-10-31T08:49:31;21.17;;;12.82;;
51034;SDS011;37062;52.546;13.230;2022-10-31T08:51:58;22.15;;;13.93;;
51034;SDS011;37062;52.546;13.230;2022-10-31T08:54:31;24.45;;;14.00;;
51034;SDS011;37062;52.546;13.230;2022-10-31T08:57:18;25.13;;;14.15;;
51034;SDS011;37062;52.546;13.230;2022-10-31T08:59:47;27.25;;;16.10;;
51034;SDS011;37062;52.546;13.230;2022-10-31T09:02:34;26.42;;;15.45;;
51034;SDS011;37062;52.546;13.230;2022-10-31T09:05:02;24.00;;;15.27;;
51034;SDS011;37062;52.546;13.230;2022-10-31T09:07:30;22.65;;;15.90;;
51034;SDS011;37062;52.546;13.230;2022-10-31T09:09:58;23.63;;;14.27;;
51034;SDS011;37062;52.546;13.230;2022-10-31T09:12:30;21.52;;;14.80;;
51034;SDS011;37062;52.546;13.230;2022-10-31T09:15:16;23.48;;;14.43;;
51034;SDS011;37062;52.546;13.230;2022-10-31T09:17:49;20.88;;;14.27;;
51034;SDS011;37062;52.546;13.230;2022-10-31T09:20:32;23.50;;;13.75;;
51034;SDS011;37062;52.546;13.230;2022-10-31T09:23:02;25.40;;;14.27;;
51034;SDS011;37062;52.546;13.230;2022-10-31T09:25:33;19.92;;;14.35;;
51034;SDS011;37062;52.546;13.230;2022-10-31T09:28:20;25.48;;;14.07;;
51034;SDS011;37062;52.546;13.230;2022-10-31T09:30:49;24.48;;;16.38;;
51034;SDS011;37062;52.546;13.230;2022-10-31T09:33:39;24.60;;;14.38;;
51034;SDS011;37062;52.546;13.230;2022-10-31T09:36:26;22.38;;;13.77;;
51034;SDS011;37062;52.546;13.230;2022-10-31T09:38:54;30.10;;;18.65;;
51034;SDS011;37062;52.546;13.230;2022-10-31T09:41:23;26.67;;;17.52;;
51034;SDS011;37062;52.546;13.230;2022-10-31T09:43:58;19.67;;;13.77;;
51034;SDS011;37062;52.546;13.230;2022-10-31T09:46:36;27.98;;;17.88;;
51034;SDS011;37062;52.546;13.230;2022-10-31T09:49:48;27.40;;;16.33;;
51034;SDS011;37062;52.546;13.230;2022-10-31T09:52:21;29.98;;;16.13;;
51034;SDS011;37062;52.546;13.230;2022-10-31T09:54:53;26.17;;;16.17;;
51034;SDS011;37062;52.546;13.230;2022-10-31T09:57:25;26.63;;;14.90;;
51034;SDS011;37062;52.546;13.230;2022-10-31T09:59:56;28.00;;;18.55;;
51034;SDS011;37062;52.546;13.230;2022-10-31T10:02:26;30.40;;;19.00;;
51034;SDS011;37062;52.546;13.230;2022-10-31T10:05:00;25.50;;;17.35;;
51034;SDS011;37062;52.546;13.230;2022-10-31T10:07:33;24.60;;;18.02;;
51034;SDS011;37062;52.546;13.230;2022-10-31T10:10:43;27.98;;;16.45;;
51034;SDS011;37062;52.546;13.230;2022-10-31T10:13:45;28.73;;;17.67;;
51034;SDS011;37062;52.546;13.230;2022-10-31T10:16:31;31.98;;;18.98;;
51034;SDS011;37062;52.546;13.230;2022-10-31T10:19:20;28.60;;;18.55;;
51034;SDS011;37062;52.546;13.230;2022-10-31T10:22:10;31.85;;;18.42;;
51034;SDS011;37062;52.546;13.230;2022-10-31T10:24:53;29.52;;;18.52;;
51034;SDS011;37062;52.546;13.230;2022-10-31T10:27:33;33.40;;;19.48;;
51034;SDS011;37062;52.546;13.230;2022-10-31T10:30:12;29.95;;;19.05;;
51034;SDS011;37062;52.546;13.230;2022-10-31T10:32:42;28.92;;;18.45;;
51034;SDS011;37062;52.546;13.230;2022-10-31T10:35:14;29.25;;;19.83;;
51034;SDS011;37062;52.546;13.230;2022-10-31T10:37:49;25.13;;;18.38;;
51034;SDS011;37062;52.546;13.230;2022-10-31T10:40:23;34.22;;;20.02;;
51034;SDS011;37062;52.546;13.230;2022-10-31T10:42:55;29.20;;;19.25;;
51034;SDS011;37062;52.546;13.230;2022-10-31T10:45:49;29.08;;;17.48;;
51034;SDS011;37062;52.546;13.230;2022-10-31T10:48:44;26.05;;;18.35;;
51034;SDS011;37062;52.546;13.230;2022-10-31T10:51:20;26.48;;;17.63;;
51034;SDS011;37062;52.546;13.230;2022-10-31T10:54:00;27.27;;;18.13;;
51034;SDS011;37062;52.546;13.230;2022-10-31T10:56:41;24.95;;;17.05;;
51034;SDS011;37062;52.546;13.230;2022-10-31T10:59:24;29.08;;;19.20;;
51034;SDS011;37062;52.546;13.230;2022-10-31T11:01:52;28.80;;;18.23;;
51034;SDS011;37062;52.546;13.230;2022-10-31T11:04:25;21.67;;;16.60;;
51034;SDS011;37062;52.546;13.230;2022-10-31T11:06:59;29.73;;;18.13;;
51034;SDS011;37062;52.546;13.230;2022-10-31T11:09:29;31.98;;;18.70;;
51034;SDS011;37062;52.546;13.230;2022-10-31T11:11:56;29.20;;;20.98;;
51034;SDS011;37062;52.546;13.230;2022-10-31T11:14:25;25.52;;;16.42;;
51034;SDS011;37062;52.546;13.230;2022-10-31T11:16:54;23.42;;;16.20;;
51034;SDS011;37062;52.546;13.230;2022-10-31T11:19:33;29.05;;;18.05;;
51034;SDS011;37062;52.546;13.230;2022-10-31T11:22:05;33.58;;;20.40;;
51034;SDS011;37062;52.546;13.230;2022-10-31T11:24:37;26.40;;;19.00;;
51034;SDS011;37062;52.546;13.230;2022-10-31T11:27:12;25.13;;;18.58;;
51034;SDS011;37062;52.546;13.230;2022-10-31T11:29:42;31.27;;;19.00;;
51034;SDS011;37062;52.546;13.230;2022-10-31T11:32:16;27.70;;;18.05;;
51034;SDS011;37062;52.546;13.230;2022-10-31T11:34:47;31.00;;;19.83;;
51034;SDS011;37062;52.546;13.230;2022-10-31T11:37:18;26.35;;;17.42;;
51034;SDS011;37062;52.546;13.230;2022-10-31T11:39:50;32.75;;;19.73;;
51034;SDS011;37062;52.546;13.230;2022-10-31T11:42:22;33.15;;;20.20;;
51034;SDS011;37062;52.546;13.230;2022-10-31T11:44:52;27.88;;;19.45;;
51034;SDS011;37062;52.546;13.230;2022-10-31T11:47:23;33.22;;;20.38;;
51034;SDS011;37062;52.546;13.230;2022-10-31T11:49:54;36.00;;;23.80;;
51034;SDS011;37062;52.546;13.230;2022-10-31T11:52:24;31.45;;;20.15;;
51034;SDS011;37062;52.546;13.230;2022-10-31T11:54:55;27.77;;;18.65;;
51034;SDS011;37062;52.546;13.230;2022-10-31T11:57:26;27.92;;;18.67;;
51034;SDS011;37062;52.546;13.230;2022-10-31T11:59:55;30.48;;;20.25;;
51034;SDS011;37062;52.546;13.230;2022-10-31T12:02:24;28.23;;;19.75;;
51034;SDS011;37062;52.546;13.230;2022-10-31T12:04:58;33.47;;;20.75;;
51034;SDS011;37062;52.546;13.230;2022-10-31T12:07:31;29.83;;;19.15;;
51034;SDS011;37062;52.546;13.230;2022-10-31T12:10:00;29.55;;;21.00;;
51034;SDS011;37062;52.546;13.230;2022-10-31T12:12:34;30.40;;;19.17;;
51034;SDS011;37062;52.546;13.230;2022-10-31T12:15:21;34.58;;;22.25;;
51034;SDS011;37062;52.546;13.230;2022-10-31T12:18:00;34.28;;;22.00;;
51034;SDS011;37062;52.546;13.230;2022-10-31T12:20:44;37.88;;;25.30;;
51034;SDS011;37062;52.546;13.230;2022-10-31T12:23:23;35.72;;;25.35;;
51034;SDS011;37062;52.546;13.230;2022-10-31T12:25:59;32.65;;;22.02;;
51034;SDS011;37062;52.546;13.230;2022-10-31T12:28:39;40.05;;;25.38;;
51034;SDS011;37062;52.546;13.230;2022-10-31T12:31:19;42.70;;;26.77;;
51034;SDS011;37062;52.546;13.230;2022-10-31T12:34:01;37.50;;;26.60;;
51034;SDS011;37062;52.546;13.230;2022-10-31T12:36:45;35.92;;;25.77;;
51034;SDS011;37062;52.546;13.230;2022-10-31T12:39:22;38.30;;;27.65;;
51034;SDS011;37062;52.546;13.230;2022-10-31T12:41:55;43.22;;;28.85;;
51034;SDS011;37062;52.546;13.230;2022-10-31T12:44:33;44.33;;;27.73;;
51034;SDS011;37062;52.546;13.230;2022-10-31T12:50:12;39.17;;;27.02;;
51034;SDS011;37062;52.546;13.230;2022-10-31T12:52:56;38.60;;;28.23;;
51034;SDS011;37062;52.546;13.230;2022-10-31T12:55:36;42.35;;;27.55;;
51034;SDS011;37062;52.546;13.230;2022-10-31T12:58:14;46.58;;;30.33;;
51034;SDS011;37062;52.546;13.230;2022-10-31T13:00:46;42.60;;;28.08;;
51034;SDS011;37062;52.546;13.230;2022-10-31T13:03:22;35.53;;;25.80;;
51034;SDS011;37062;52.546;13.230;2022-10-31T13:05:54;43.80;;;27.63;;
51034;SDS011;37062;52.546;13.230;2022-10-31T13:08:26;40.17;;;27.15;;
51034;SDS011;37062;52.546;13.230;2022-10-31T13:11:00;46.97;;;30.58;;
51034;SDS011;37062;52.546;13.230;2022-10-31T13:13:37;39.63;;;28.58;;
51034;SDS011;37062;52.546;13.230;2022-10-31T13:16:09;39.75;;;29.02;;
51034;SDS011;37062;52.546;13.230;2022-10-31T13:18:42;44.22;;;31.65;;
51034;SDS011;37062;52.546;13.230;2022-10-31T13:21:15;46.58;;;31.17;;
51034;SDS011;37062;52.546;13.230;2022-10-31T13:23:45;39.58;;;28.23;;
51034;SDS011;37062;52.546;13.230;2022-10-31T13:26:19;37.25;;;26.48;;
51034;SDS011;37062;52.546;13.230;2022-10-31T13:28:54;47.72;;;29.85;;
51034;SDS011;37062;52.546;13.230;2022-10-31T13:31:26;40.10;;;29.25;;
51034;SDS011;37062;52.546;13.230;2022-10-31T13:33:54;38.70;;;27.65;;
51034;SDS011;37062;52.546;13.230;2022-10-31T13:36:28;41.65;;;27.42;;
51034;SDS011;37062;52.546;13.230;2022-10-31T13:39:03;52.08;;;35.05;;
51034;SDS011;37062;52.546;13.230;2022-10-31T13:41:48;44.40;;;29.95;;
51034;SDS011;37062;52.546;13.230;2022-10-31T13:44:21;45.95;;;30.48;;
51034;SDS011;37062;52.546;13.230;2022-10-31T13:46:50;50.05;;;33.13;;
51034;SDS011;37062;52.546;13.230;2022-10-31T13:49:23;44.03;;;32.50;;
51034;SDS011;37062;52.546;13.230;2022-10-31T13:51:52;49.25;;;32.58;;
51034;SDS011;37062;52.546;13.230;2022-10-31T13:54:32;45.53;;;31.48;;
51034;SDS011;37062;52.546;13.230;2022-10-31T13:57:00;49.22;;;31.10;;
51034;SDS011;37062;52.546;13.230;2022-10-31T13:59:29;56.75;;;33.58;;
51034;SDS011;37062;52.546;13.230;2022-10-31T14:02:12;49.80;;;31.77;;
51034;SDS011;37062;52.546;13.230;2022-10-31T14:04:44;54.08;;;34.45;;
51034;SDS011;37062;52.546;13.230;2022-10-31T14:07:14;49.53;;;32.10;;
51034;SDS011;37062;52.546;13.230;2022-10-31T14:09:49;53.00;;;32.90;;
51034;SDS011;37062;52.546;13.230;2022-10-31T14:12:25;50.08;;;33.42;;
51034;SDS011;37062;52.546;13.230;2022-10-31T14:14:59;53.45;;;35.08;;
51034;SDS011;37062;52.546;13.230;2022-10-31T14:17:33;59.10;;;37.95;;
51034;SDS011;37062;52.546;13.230;2022-10-31T14:31:53;56.28;;;36.45;;
51034;SDS011;37062;52.546;13.230;2022-10-31T14:34:27;62.97;;;40.00;;
51034;SDS011;37062;52.546;13.230;2022-10-31T14:36:59;65.32;;;39.53;;
51034;SDS011;37062;52.546;13.230;2022-10-31T14:39:36;67.78;;;39.60;;
51034;SDS011;37062;52.546;13.230;2022-10-31T14:42:14;58.78;;;35.28;;
51034;SDS011;37062;52.546;13.230;2022-10-31T14:44:59;61.25;;;38.30;;
51034;SDS011;37062;52.546;13.230;2022-10-31T14:47:59;46.95;;;31.73;;
51034;SDS011;37062;52.546;13.230;2022-10-31T14:50:39;48.90;;;31.63;;
51034;SDS011;37062;52.546;13.230;2022-10-31T14:53:13;48.67;;;31.55;;
51034;SDS011;37062;52.546;13.230;2022-10-31T14:55:46;52.60;;;33.53;;
51034;SDS011;37062;52.546;13.230;2022-10-31T14:58:17;74.07;;;40.65;;
51034;SDS011;37062;52.546;13.230;2022-10-31T15:00:48;60.08;;;36.70;;
51034;SDS011;37062;52.546;13.230;2022-10-31T15:03:22;54.53;;;33.72;;
51034;SDS011;37062;52.546;13.230;2022-10-31T15:05:54;78.65;;;44.33;;
51034;SDS011;37062;52.546;13.230;2022-10-31T15:08:32;57.58;;;35.88;;